createdAt,value
2023-01-08T04:33:42.654Z,101052.09
2023-01-08T04:36:10.205Z,101052.46
2023-01-08T04:38:37.029Z,101056.55
2023-01-08T04:41:04.526Z,101057.74
2023-01-08T04:43:31.824Z,101054.48
2023-01-08T04:45:59.652Z,101059.70
2023-01-08T04:48:27.545Z,101055.92
2023-01-08T04:50:54.476Z,101058.48
2023-01-08T04:53:21.252Z,101059.09
2023-01-08T04:55:48.070Z,101059.32
2023-01-08T04:58:14.939Z,101059.04
2023-01-08T05:00:41.756Z,101059.54
2023-01-08T05:03:08.540Z,101066.02
2023-01-08T05:05:35.494Z,101065.35
2023-01-08T05:08:02.371Z,101067.96
2023-01-08T05:10:29.160Z,101070.45
2023-01-08T05:13:00.125Z,101074.09
2023-01-08T05:15:27.080Z,101077.20
2023-01-08T05:18:01.193Z,101076.57
2023-01-08T05:20:28.122Z,101081.46
2023-01-08T05:22:54.955Z,101075.34
2023-01-08T05:25:21.790Z,101072.98
2023-01-08T05:27:48.652Z,101074.94
2023-01-08T05:30:15.663Z,101075.75
2023-01-08T05:32:42.705Z,101079.50
2023-01-08T05:35:09.971Z,101078.89
2023-01-08T05:37:37.678Z,101079.76
2023-01-08T05:40:05.365Z,101079.10
2023-01-08T05:42:34.145Z,101078.29
2023-01-08T05:45:05.543Z,101079.20
2023-01-08T05:47:32.988Z,101085.66
2023-01-08T05:49:59.822Z,101079.00
2023-01-08T05:52:26.674Z,101080.96
2023-01-08T05:54:53.480Z,101088.74
2023-01-08T05:57:20.286Z,101091.23
2023-01-08T05:59:47.112Z,101093.77
2023-01-08T06:02:13.979Z,101097.38
2023-01-08T06:04:40.981Z,101093.13
2023-01-08T06:07:08.595Z,101092.62
2023-01-08T06:09:35.450Z,101095.38
2023-01-08T06:12:02.314Z,101099.96
2023-01-08T06:14:29.133Z,101096.25
2023-01-08T06:16:56.013Z,101099.46
2023-01-08T06:19:22.797Z,101099.55
2023-01-08T06:21:49.615Z,101100.71
2023-01-08T06:24:16.392Z,101097.92
2023-01-08T06:26:43.243Z,101095.27
2023-01-08T06:29:10.073Z,101096.90
2023-01-08T06:31:38.200Z,101090.95
2023-01-08T06:34:05.008Z,101086.08
2023-01-08T06:36:31.887Z,101087.11
2023-01-08T06:38:58.767Z,101092.75
2023-01-08T06:41:25.580Z,101092.62
2023-01-08T06:43:52.510Z,101092.16
2023-01-08T06:46:19.345Z,101096.20
2023-01-08T06:48:46.207Z,101091.23
2023-01-08T06:51:13.023Z,101096.39
2023-01-08T06:53:39.896Z,101095.55
2023-01-08T06:56:09.834Z,101094.89
2023-01-08T06:58:37.367Z,101099.16
2023-01-08T07:01:04.354Z,101092.01
2023-01-08T07:03:31.325Z,101092.64
2023-01-08T07:05:58.333Z,101093.73
2023-01-08T07:08:25.272Z,101091.77
2023-01-08T07:10:52.182Z,101094.49
2023-01-08T07:13:18.972Z,101092.58
2023-01-08T07:15:45.878Z,101087.48
2023-01-08T07:18:13.522Z,101088.39
2023-01-08T07:20:40.480Z,101091.02
2023-01-08T07:23:09.617Z,101092.27
2023-01-08T07:25:36.399Z,101089.42
2023-01-08T07:28:03.271Z,101089.66
2023-01-08T07:30:30.874Z,101091.23
2023-01-08T07:33:01.541Z,101094.19
2023-01-08T07:35:28.826Z,101087.75
2023-01-08T07:37:55.745Z,101091.25
2023-01-08T07:40:22.678Z,101089.97
2023-01-08T07:42:56.877Z,101090.68
2023-01-08T07:45:23.672Z,101093.61
2023-01-08T07:47:50.455Z,101095.88
2023-01-08T07:50:17.253Z,101096.64
2023-01-08T07:52:44.205Z,101099.20
2023-01-08T07:55:11.017Z,101101.27
2023-01-08T07:57:37.838Z,101099.48
2023-01-08T08:00:05.414Z,101100.14
2023-01-08T08:02:33.839Z,101100.76
2023-01-08T08:05:00.952Z,101099.70
2023-01-08T08:07:32.012Z,101099.41
2023-01-08T08:09:59.835Z,101095.68
2023-01-08T08:12:26.671Z,101097.65
2023-01-08T08:14:53.561Z,101106.73
2023-01-08T08:17:20.460Z,101108.84
2023-01-08T08:19:47.429Z,101107.38
2023-01-08T08:22:14.479Z,101104.05
2023-01-08T08:24:41.349Z,101108.10
2023-01-08T08:27:08.258Z,101108.13
2023-01-08T08:29:35.049Z,101104.19
2023-01-08T08:32:01.908Z,101104.75
2023-01-08T08:34:28.958Z,101098.85
2023-01-08T08:36:55.810Z,101102.09
2023-01-08T08:39:22.898Z,101107.33
2023-01-08T08:41:49.719Z,101108.31
2023-01-08T08:44:16.544Z,101112.23
2023-01-08T08:46:43.409Z,101103.98
2023-01-08T08:49:10.514Z,101100.42
2023-01-08T08:51:37.665Z,101100.36
2023-01-08T08:54:04.514Z,101096.11
2023-01-08T08:56:31.533Z,101089.35
2023-01-08T08:58:58.503Z,101083.72
2023-01-08T09:01:25.397Z,101083.48
2023-01-08T09:03:52.412Z,101083.50
2023-01-08T09:06:19.204Z,101088.73
2023-01-08T09:08:45.998Z,101080.86
2023-01-08T09:11:15.037Z,101075.55
2023-01-08T09:13:41.984Z,101070.06
2023-01-08T09:16:08.936Z,101071.83
2023-01-08T09:18:35.801Z,101078.88
2023-01-08T09:21:07.068Z,101073.64
2023-01-08T09:23:34.835Z,101074.09
2023-01-08T09:26:02.384Z,101075.67
2023-01-08T09:28:29.299Z,101077.13
2023-01-08T09:30:56.341Z,101066.52
2023-01-08T09:33:23.466Z,101070.05
2023-01-08T09:35:50.634Z,101066.82
2023-01-08T09:38:17.730Z,101063.29
2023-01-08T09:40:52.191Z,101064.42
2023-01-08T09:43:20.208Z,101065.40
2023-01-08T09:45:51.304Z,101066.70
2023-01-08T09:48:18.612Z,101064.34
2023-01-08T09:50:45.482Z,101052.86
2023-01-08T09:53:15.235Z,101049.84
2023-01-08T09:55:42.882Z,101052.26
2023-01-08T09:58:33.872Z,101053.05
2023-01-08T10:01:02.365Z,101047.50
2023-01-08T10:03:40.426Z,101053.71
2023-01-08T10:06:12.039Z,101045.66
2023-01-08T10:08:38.977Z,101048.03
2023-01-08T10:11:07.323Z,101041.52
2023-01-08T10:13:35.376Z,101038.50
2023-01-08T10:16:05.630Z,101040.30
2023-01-08T10:18:32.528Z,101040.27
2023-01-08T10:20:59.488Z,101036.05
2023-01-08T10:23:26.491Z,101035.60
2023-01-08T10:25:58.936Z,101039.09
2023-01-08T10:28:31.423Z,101043.02
2023-01-08T10:31:12.082Z,101045.28
2023-01-08T10:33:40.344Z,101041.76
2023-01-08T10:36:08.719Z,101034.21
2023-01-08T10:38:38.068Z,101030.65
2023-01-08T10:41:05.798Z,101028.92
2023-01-08T10:43:35.052Z,101023.90
2023-01-08T10:46:08.176Z,101022.33
2023-01-08T10:48:39.630Z,101027.02
2023-01-08T10:51:18.588Z,101018.73
2023-01-08T10:53:45.423Z,101011.80
2023-01-08T10:56:23.893Z,101013.08
2023-01-08T10:58:54.672Z,101016.98
2023-01-08T11:01:29.095Z,101021.86
2023-01-08T11:04:03.334Z,101021.58
2023-01-08T11:06:31.915Z,101019.70
2023-01-08T11:09:00.822Z,101023.03
2023-01-08T11:11:37.557Z,101015.07
2023-01-08T11:14:07.102Z,101004.85
2023-01-08T11:16:38.330Z,101004.49
2023-01-08T11:19:05.686Z,101004.84
2023-01-08T11:21:33.230Z,101013.02
2023-01-08T11:24:21.503Z,101019.48
2023-01-08T11:26:50.939Z,101009.52
2023-01-08T11:29:51.496Z,101015.92
2023-01-08T11:32:18.678Z,101015.17
2023-01-08T11:34:54.799Z,101017.73
2023-01-08T11:37:35.681Z,101014.66
2023-01-08T11:40:03.869Z,101015.61
2023-01-08T11:42:49.390Z,101015.89
2023-01-08T11:45:26.064Z,101008.27
2023-01-08T11:48:24.109Z,101006.56
2023-01-08T11:51:04.306Z,101010.52
2023-01-08T11:53:42.093Z,101010.15
2023-01-08T11:56:33.371Z,101004.83
2023-01-08T11:59:29.471Z,101010.28
2023-01-08T12:02:20.784Z,101008.79
2023-01-08T12:05:11.061Z,101009.75
2023-01-08T12:07:43.313Z,101001.42
2023-01-08T12:10:29.345Z,100994.84
2023-01-08T12:13:21.929Z,100995.34
2023-01-08T12:15:51.760Z,100989.55
2023-01-08T12:18:47.484Z,100989.48
2023-01-08T12:21:17.223Z,100988.54
2023-01-08T12:24:11.408Z,100983.13
2023-01-08T12:27:00.975Z,100981.99
2023-01-08T12:29:54.816Z,100982.27
2023-01-08T12:32:24.968Z,100980.26
2023-01-08T12:35:15.570Z,100977.75
2023-01-08T12:37:46.693Z,100975.80
2023-01-08T12:40:25.232Z,100976.33
2023-01-08T12:43:00.449Z,100975.83
2023-01-08T12:45:29.727Z,100969.66
2023-01-08T12:48:08.587Z,100971.09
2023-01-08T12:50:49.656Z,100968.04
2023-01-08T12:53:22.742Z,100969.09
2023-01-08T12:56:10.813Z,100962.80
2023-01-08T12:58:46.293Z,100963.61
2023-01-08T13:01:38.157Z,100964.92
2023-01-08T13:04:06.208Z,100965.67
2023-01-08T13:06:33.184Z,100964.98
2023-01-08T13:09:01.500Z,100956.64
2023-01-08T13:11:31.167Z,100962.91
2023-01-08T13:14:08.854Z,100961.17
2023-01-08T13:16:40.278Z,100959.10
2023-01-08T13:19:08.470Z,100959.48
2023-01-08T13:21:49.974Z,100967.66
2023-01-08T13:24:33.219Z,100963.23
2023-01-08T13:27:16.995Z,100972.55
2023-01-08T13:29:47.873Z,100973.98
2023-01-08T13:32:38.910Z,100970.21
2023-01-08T13:35:15.078Z,100969.13
2023-01-08T13:37:52.976Z,100964.63
2023-01-08T13:40:35.461Z,100960.30
2023-01-08T13:43:11.350Z,100956.10
2023-01-08T13:45:38.233Z,100954.27
2023-01-08T13:48:05.178Z,100957.84
2023-01-08T13:50:32.684Z,100957.95
2023-01-08T13:53:00.970Z,100952.54
2023-01-08T13:55:39.098Z,100951.27
2023-01-08T13:58:12.293Z,100950.20
2023-01-08T14:00:42.456Z,100937.89
2023-01-08T14:03:29.517Z,100934.86
2023-01-08T14:06:19.327Z,100936.61
2023-01-08T14:08:53.708Z,100929.52
2023-01-08T14:11:21.381Z,100926.41
2023-01-08T14:13:48.140Z,100923.45
2023-01-08T14:16:15.536Z,100923.42
2023-01-08T14:18:43.615Z,100923.90
2023-01-08T14:21:12.929Z,100920.94
2023-01-08T14:23:46.233Z,100923.52
2023-01-08T14:26:40.972Z,100916.92
2023-01-08T14:29:15.837Z,100912.77
2023-01-08T14:31:50.231Z,100918.19
2023-01-08T14:34:17.069Z,100916.04
2023-01-08T14:36:43.909Z,100912.68
2023-01-08T14:39:25.686Z,100910.69
2023-01-08T14:42:12.199Z,100907.68
2023-01-08T14:44:42.456Z,100909.00
2023-01-08T14:47:16.920Z,100906.33
2023-01-08T14:49:44.877Z,100906.45
2023-01-08T14:52:15.490Z,100903.46
2023-01-08T14:54:42.359Z,100910.14
2023-01-08T14:57:11.433Z,100914.04
2023-01-08T14:59:38.276Z,100901.41
2023-01-08T15:02:06.507Z,100902.58
2023-01-08T15:04:33.616Z,100907.79
2023-01-08T15:07:09.092Z,100906.12
2023-01-08T15:09:36.381Z,100900.86
2023-01-08T15:12:05.149Z,100901.66
2023-01-08T15:14:33.716Z,100900.67
2023-01-08T15:17:08.509Z,100904.54
2023-01-08T15:19:40.418Z,100904.26
2023-01-08T15:22:14.129Z,100908.31
2023-01-08T15:24:41.677Z,100901.88
2023-01-08T15:27:18.229Z,100897.01
2023-01-08T15:29:49.854Z,100895.27
2023-01-08T15:32:16.867Z,100899.68
2023-01-08T15:34:44.314Z,100904.45
2023-01-08T15:37:11.369Z,100902.95
2023-01-08T15:39:38.440Z,100905.63
2023-01-08T15:42:40.478Z,100908.75
2023-01-08T15:45:18.454Z,100922.80
2023-01-08T15:47:45.409Z,100912.95
2023-01-08T15:50:12.515Z,100909.79
2023-01-08T15:52:40.817Z,100905.26
2023-01-08T15:55:08.213Z,100906.92
2023-01-08T15:57:35.385Z,100894.66
2023-01-08T16:00:02.940Z,100896.14
2023-01-08T16:02:46.416Z,100890.27
2023-01-08T16:05:17.773Z,100897.20
2023-01-08T16:07:46.403Z,100902.20
2023-01-08T16:10:16.865Z,100897.55
2023-01-08T16:12:43.704Z,100896.80
2023-01-08T16:15:11.629Z,100897.11
2023-01-08T16:17:38.684Z,100898.95
2023-01-08T16:20:06.170Z,100899.58
2023-01-08T16:22:33.737Z,100906.06
2023-01-08T16:25:00.771Z,100896.52
2023-01-08T16:27:27.830Z,100897.28
2023-01-08T16:29:54.615Z,100895.80
2023-01-08T16:32:21.515Z,100909.32
2023-01-08T16:34:48.575Z,100906.73
2023-01-08T16:37:15.426Z,100903.89
2023-01-08T16:39:42.266Z,100910.02
2023-01-08T16:42:09.782Z,100915.60
2023-01-08T16:44:36.949Z,100907.98
2023-01-08T16:47:04.143Z,100906.36
2023-01-08T16:50:36.204Z,100905.94
2023-01-08T16:53:03.993Z,100907.34
2023-01-08T16:55:31.536Z,100910.70
2023-01-08T16:57:58.188Z,100909.80
2023-01-08T17:00:25.117Z,100910.27
2023-01-08T17:02:51.878Z,100909.85
2023-01-08T17:05:18.917Z,100908.95
2023-01-08T17:07:45.958Z,100905.44
2023-01-08T17:10:12.804Z,100903.46
2023-01-08T17:12:39.441Z,100914.97
2023-01-08T17:15:07.399Z,100907.67
2023-01-08T17:17:34.907Z,100915.15
2023-01-08T17:20:01.954Z,100915.01
2023-01-08T17:22:29.260Z,100908.20
2023-01-08T17:24:56.014Z,100910.98
2023-01-08T17:27:23.087Z,100899.52
2023-01-08T17:29:49.810Z,100902.16
2023-01-08T17:32:16.701Z,100909.31
2023-01-08T17:34:44.204Z,100912.33
2023-01-08T17:37:10.942Z,100913.98
2023-01-08T17:39:37.812Z,100918.05
2023-01-08T17:42:23.002Z,100911.83
2023-01-08T17:44:50.331Z,100920.78
2023-01-08T17:47:21.314Z,100904.23
2023-01-08T17:49:52.052Z,100914.00
2023-01-08T17:52:18.824Z,100914.86
2023-01-08T17:54:49.060Z,100912.23
2023-01-08T17:57:19.131Z,100908.41
2023-01-08T17:59:46.197Z,100916.23
2023-01-08T18:02:15.905Z,100912.05
2023-01-08T18:04:44.918Z,100920.79
2023-01-08T18:07:11.818Z,100918.48
2023-01-08T18:09:39.058Z,100916.27
2023-01-08T18:12:06.809Z,100910.55
2023-01-08T18:14:38.499Z,100902.86
2023-01-08T18:17:05.441Z,100902.05
2023-01-08T18:19:32.340Z,100897.33
2023-01-08T18:21:58.982Z,100894.65
2023-01-08T18:24:26.526Z,100900.41
2023-01-08T18:26:53.432Z,100898.44
2023-01-08T18:29:20.718Z,100907.17
2023-01-08T18:31:47.606Z,100901.15
2023-01-08T18:34:14.878Z,100896.77
2023-01-08T18:36:41.835Z,100891.42
2023-01-08T18:39:09.000Z,100890.71
2023-01-08T18:41:55.114Z,100884.61
2023-01-08T18:44:22.116Z,100890.25
2023-01-08T18:46:48.679Z,100895.00
2023-01-08T18:49:15.304Z,100891.67
2023-01-08T18:51:42.304Z,100894.18
2023-01-08T18:54:10.779Z,100877.80
2023-01-08T18:56:39.225Z,100878.14
2023-01-08T18:59:06.195Z,100873.22
2023-01-08T19:01:34.351Z,100881.91
2023-01-08T19:04:16.485Z,100876.14
2023-01-08T19:06:43.358Z,100874.53
2023-01-08T19:09:10.786Z,100883.21
2023-01-08T19:11:38.048Z,100880.75
2023-01-08T19:14:04.828Z,100888.42
2023-01-08T19:16:31.434Z,100880.09
2023-01-08T19:18:58.972Z,100876.34
2023-01-08T19:21:30.068Z,100868.17
2023-01-08T19:23:56.930Z,100869.63
2023-01-08T19:26:23.701Z,100869.00
2023-01-08T19:28:50.285Z,100872.05
2023-01-08T19:31:17.413Z,100875.95
2023-01-08T19:33:45.425Z,100871.23
2023-01-08T19:36:15.239Z,100873.20
2023-01-08T19:38:42.878Z,100871.89
2023-01-08T19:41:29.054Z,100861.44
2023-01-08T19:43:55.932Z,100858.83
2023-01-08T19:46:22.769Z,100870.67
2023-01-08T19:48:49.812Z,100865.99
2023-01-08T19:51:16.834Z,100862.30
2023-01-08T19:53:44.814Z,100866.48
2023-01-08T19:56:13.529Z,100867.06
2023-01-08T19:58:40.247Z,100876.61
2023-01-08T20:01:09.783Z,100885.45
2023-01-08T20:03:37.555Z,100874.35
2023-01-08T20:06:06.567Z,100874.64
2023-01-08T20:08:33.890Z,100860.59
2023-01-08T20:11:05.397Z,100861.99
2023-01-08T20:13:35.436Z,100858.05
2023-01-08T20:16:03.898Z,100856.89
2023-01-08T20:18:31.460Z,100846.77
2023-01-08T20:21:18.154Z,100850.45
2023-01-08T20:23:44.974Z,100854.86
2023-01-08T20:26:13.991Z,100850.98
2023-01-08T20:28:41.509Z,100843.98
2023-01-08T20:31:10.299Z,100846.85
2023-01-08T20:33:38.619Z,100845.03
2023-01-08T20:36:18.600Z,100844.39
2023-01-08T20:38:46.350Z,100843.56
2023-01-08T20:41:14.615Z,100836.03
2023-01-08T20:43:41.760Z,100843.33
2023-01-08T20:46:13.133Z,100842.38
2023-01-08T20:48:47.038Z,100841.29
2023-01-08T20:51:14.725Z,100842.78
2023-01-08T20:53:41.675Z,100841.66
2023-01-08T20:56:12.618Z,100840.63
2023-01-08T20:58:43.063Z,100837.27
2023-01-08T21:01:22.592Z,100833.73
2023-01-08T21:03:50.271Z,100838.09
2023-01-08T21:06:18.918Z,100832.47
2023-01-08T21:08:47.060Z,100829.48
2023-01-08T21:11:15.691Z,100818.06
2023-01-08T21:13:42.601Z,100817.14
2023-01-08T21:16:13.141Z,100808.00
2023-01-08T21:18:43.427Z,100816.84
2023-01-08T21:21:13.143Z,100816.79
2023-01-08T21:23:40.541Z,100820.65
2023-01-08T21:26:09.314Z,100821.99
2023-01-08T21:28:36.606Z,100818.63
2023-01-08T21:31:12.807Z,100823.98
2023-01-08T21:33:40.021Z,100823.52
2023-01-08T21:36:08.793Z,100815.33
2023-01-08T21:38:36.223Z,100819.86
2023-01-08T21:41:07.371Z,100814.84
2023-01-08T21:43:53.648Z,100802.55
2023-01-08T21:46:24.112Z,100804.70
2023-01-08T21:48:51.641Z,100795.48
2023-01-08T21:51:37.242Z,100800.73
2023-01-08T21:54:04.503Z,100796.72
2023-01-08T21:56:32.141Z,100791.27
2023-01-08T21:58:58.973Z,100787.53
2023-01-08T22:01:26.580Z,100785.55
2023-01-08T22:03:53.817Z,100772.03
2023-01-08T22:06:20.910Z,100774.16
2023-01-08T22:08:51.997Z,100779.15
2023-01-08T22:11:19.413Z,100772.98
2023-01-08T22:13:46.245Z,100772.55
2023-01-08T22:16:15.125Z,100776.12
2023-01-08T22:18:42.804Z,100768.78
2023-01-08T22:21:11.111Z,100749.45
2023-01-08T22:23:37.852Z,100746.15
2023-01-08T22:26:05.949Z,100758.13
2023-01-08T22:28:32.947Z,100755.98
2023-01-08T22:31:03.600Z,100746.42
2023-01-08T22:33:30.273Z,100741.23
2023-01-08T22:35:57.386Z,100733.67
2023-01-08T22:38:24.182Z,100739.58
2023-01-08T22:40:50.791Z,100744.47
2023-01-08T22:43:18.127Z,100741.96
2023-01-08T22:45:51.856Z,100741.77
2023-01-08T22:48:18.515Z,100734.31
2023-01-08T22:50:45.200Z,100738.88
2023-01-08T22:53:11.837Z,100732.27
2023-01-08T22:55:41.901Z,100733.23
2023-01-08T22:58:08.643Z,100725.88
2023-01-08T23:00:37.540Z,100737.29
2023-01-08T23:03:05.007Z,100726.20
2023-01-08T23:05:32.723Z,100726.38
2023-01-08T23:08:00.108Z,100724.81
2023-01-08T23:10:27.580Z,100725.00
2023-01-08T23:12:54.678Z,100729.70
2023-01-08T23:15:21.646Z,100723.98
2023-01-08T23:17:52.589Z,100712.58
2023-01-08T23:20:20.039Z,100714.33
2023-01-08T23:22:47.877Z,100717.33
2023-01-08T23:25:14.832Z,100711.91
2023-01-08T23:27:41.455Z,100694.91
2023-01-08T23:30:09.016Z,100698.48
2023-01-08T23:32:35.782Z,100687.85
2023-01-08T23:35:05.141Z,100692.67
2023-01-08T23:37:33.300Z,100687.92
2023-01-08T23:40:00.103Z,100682.55
2023-01-08T23:42:28.833Z,100689.73
2023-01-08T23:44:55.437Z,100693.91
2023-01-08T23:47:22.510Z,100698.86
2023-01-08T23:49:49.429Z,100692.25
2023-01-08T23:52:16.001Z,100703.16
2023-01-08T23:54:42.834Z,100692.70
2023-01-08T23:57:10.029Z,100687.39
2023-01-08T23:59:36.663Z,100683.47
